Time;durP1;ratioP1;P1;durP2;ratioP2;P2;SDS_P1;SDS_P2;PMS_P1;PMS_P2;Temp;Humidity;BMP_temperature;BMP_pressure;BME280_temperature;BME280_humidity;BME280_pressure;Samples;Min_cycle;Max_cycle;Signal;HPM_P1;HPM_P2
2023/07/14 00:01:53;;;;;;;5.53;2.57;;;16.90;99.90;;;;;;4124756;28;20756;-71
2023/07/14 00:03:55;;;;;;;5.43;2.50;;;16.90;99.90;;;;;;4126417;28;20220;-70
2023/07/14 00:05:58;;;;;;;2.67;1.93;;;16.90;99.90;;;;;;4124923;28;20649;-71
2023/07/14 00:08:00;;;;;;;4.53;2.23;;;16.80;99.90;;;;;;4121944;28;20315;-71
2023/07/14 00:10:17;;;;;;;5.67;2.20;;;16.80;99.90;;;;;;4125200;28;20221;-71
2023/07/14 00:12:19;;;;;;;3.80;2.20;;;16.80;99.90;;;;;;4126206;28;20245;-71
2023/07/14 00:14:21;;;;;;;3.43;2.20;;;16.80;99.90;;;;;;4126948;28;20213;-71
2023/07/14 00:16:30;;;;;;;4.03;2.70;;;16.80;99.90;;;;;;4125589;28;20679;-71
2023/07/14 00:18:32;;;;;;;4.13;2.27;;;16.70;99.90;;;;;;4124624;28;20271;-71
2023/07/14 00:20:34;;;;;;;5.77;2.63;;;16.70;99.90;;;;;;4124161;28;20870;-71
2023/07/14 00:22:35;;;;;;;3.63;2.40;;;16.70;99.90;;;;;;4125046;28;20291;-72
2023/07/14 00:24:37;;;;;;;5.70;2.70;;;16.60;99.90;;;;;;4125799;28;20303;-71
2023/07/14 00:26:41;;;;;;;4.67;2.60;;;16.60;99.90;;;;;;4125755;28;20291;-71
2023/07/14 00:28:45;;;;;;;3.47;2.40;;;16.60;99.90;;;;;;4126131;28;20247;-71
2023/07/14 00:30:48;;;;;;;5.40;2.37;;;16.60;99.90;;;;;;4128216;28;20319;-71
2023/07/14 00:32:52;;;;;;;3.10;2.00;;;16.50;99.90;;;;;;4126128;28;20311;-71
2023/07/14 00:34:56;;;;;;;3.53;2.27;;;16.50;99.90;;;;;;4125420;28;20197;-71
2023/07/14 00:36:58;;;;;;;3.93;2.10;;;16.50;99.90;;;;;;4126482;28;20224;-71
2023/07/14 00:39:00;;;;;;;3.60;2.20;;;16.50;99.90;;;;;;4127004;28;20228;-71
2023/07/14 00:41:03;;;;;;;6.20;2.30;;;16.50;99.90;;;;;;4125615;28;20229;-71
2023/07/14 00:43:13;;;;;;;7.70;2.23;;;16.50;99.90;;;;;;4126876;28;20266;-71
2023/07/14 00:45:19;;;;;;;4.00;2.40;;;16.50;99.90;;;;;;4126434;28;20239;-71
2023/07/14 00:47:26;;;;;;;4.73;2.30;;;16.50;99.90;;;;;;4123212;28;20220;-71
2023/07/14 00:49:35;;;;;;;5.30;2.33;;;16.50;99.90;;;;;;4123802;28;20204;-71
2023/07/14 00:51:37;;;;;;;4.97;2.53;;;16.40;99.90;;;;;;4125726;28;20229;-71
2023/07/14 00:53:44;;;;;;;3.47;2.30;;;16.40;99.90;;;;;;4125643;28;20295;-71
2023/07/14 00:55:49;;;;;;;3.97;1.90;;;16.30;99.90;;;;;;4126866;28;20212;-71
2023/07/14 00:57:52;;;;;;;3.97;2.10;;;16.30;99.90;;;;;;4123540;28;20327;-73
2023/07/14 01:00:01;;;;;;;4.33;2.13;;;16.30;99.90;;;;;;4122034;28;20221;-71
2023/07/14 01:02:21;;;;;;;4.50;2.37;;;16.30;99.90;;;;;;4124736;28;20287;-71
2023/07/14 01:04:23;;;;;;;3.30;1.90;;;16.30;99.90;;;;;;4126548;28;20463;-71
2023/07/14 01:06:29;;;;;;;4.77;2.13;;;16.30;99.90;;;;;;4122963;28;20553;-72
2023/07/14 01:08:32;;;;;;;3.97;2.43;;;16.30;99.90;;;;;;4124928;28;20532;-72
2023/07/14 01:10:34;;;;;;;5.73;1.93;;;16.30;99.90;;;;;;4125269;28;20267;-71
2023/07/14 01:12:38;;;;;;;4.83;2.40;;;16.30;99.90;;;;;;4123455;28;20209;-71
2023/07/14 01:14:46;;;;;;;5.13;2.30;;;16.30;99.90;;;;;;4126632;28;20585;-71
2023/07/14 01:16:51;;;;;;;4.67;2.30;;;16.20;99.90;;;;;;4122652;28;20244;-71
2023/07/14 01:18:53;;;;;;;3.57;2.30;;;16.20;99.90;;;;;;4124675;28;20709;-71
2023/07/14 01:20:55;;;;;;;3.47;2.20;;;16.20;99.90;;;;;;4122828;28;20676;-72
2023/07/14 01:23:08;;;;;;;3.77;2.70;;;16.20;99.90;;;;;;4120841;28;20209;-71
2023/07/14 01:25:20;;;;;;;5.33;2.90;;;16.20;99.90;;;;;;4122669;28;20200;-71
2023/07/14 01:27:24;;;;;;;5.63;2.70;;;16.20;99.90;;;;;;4121324;28;20303;-71
2023/07/14 01:29:26;;;;;;;4.20;2.20;;;16.10;99.90;;;;;;4122800;28;20209;-71
2023/07/14 01:31:28;;;;;;;6.47;2.50;;;16.10;99.90;;;;;;4116515;28;20756;-72
2023/07/14 01:33:29;;;;;;;4.63;2.60;;;16.10;99.90;;;;;;4119322;28;20220;-71
2023/07/14 01:35:39;;;;;;;3.87;2.30;;;16.10;99.90;;;;;;4120455;28;20226;-71
2023/07/14 01:37:41;;;;;;;3.10;2.23;;;16.10;99.90;;;;;;4124456;28;20216;-71
2023/07/14 01:39:43;;;;;;;4.50;2.30;;;16.10;99.90;;;;;;4119974;28;20224;-71
2023/07/14 01:41:45;;;;;;;3.80;2.10;;;16.10;99.90;;;;;;4124517;28;20232;-71
2023/07/14 01:43:50;;;;;;;3.10;2.27;;;16.10;99.90;;;;;;4124690;28;20590;-72
2023/07/14 01:45:56;;;;;;;4.30;2.13;;;16.10;99.90;;;;;;4123386;28;20714;-71
2023/07/14 01:48:02;;;;;;;3.43;2.10;;;16.00;99.90;;;;;;4124197;28;20287;-71
2023/07/14 01:50:06;;;;;;;3.23;2.20;;;16.00;99.90;;;;;;4122084;28;20580;-71
2023/07/14 01:52:13;;;;;;;6.93;2.37;;;16.10;99.90;;;;;;4121640;28;20237;-71
2023/07/14 01:54:26;;;;;;;4.47;2.27;;;16.10;99.90;;;;;;4122924;28;20212;-71
2023/07/14 01:56:30;;;;;;;8.80;2.37;;;16.10;99.90;;;;;;4123173;28;20278;-72
2023/07/14 01:58:34;;;;;;;5.47;2.40;;;16.10;99.90;;;;;;4121876;28;20809;-71
2023/07/14 02:00:38;;;;;;;3.13;2.20;;;16.00;99.90;;;;;;4120129;28;20663;-72
2023/07/14 02:02:41;;;;;;;4.57;2.43;;;16.00;99.90;;;;;;4123315;28;20701;-71
2023/07/14 02:04:45;;;;;;;2.50;2.23;;;16.00;99.90;;;;;;4123591;28;20751;-71
2023/07/14 02:06:47;;;;;;;3.93;1.90;;;16.00;99.90;;;;;;4123195;28;20217;-71
2023/07/14 02:08:50;;;;;;;4.40;2.10;;;15.90;99.90;;;;;;4125072;28;20212;-71
2023/07/14 02:10:52;;;;;;;3.33;2.10;;;15.90;99.90;;;;;;4123405;28;20348;-71
2023/07/14 02:12:54;;;;;;;6.47;2.37;;;15.90;99.90;;;;;;4122871;28;20240;-71
2023/07/14 02:15:02;;;;;;;3.77;2.20;;;15.90;99.90;;;;;;4121676;28;20220;-71
2023/07/14 02:17:13;;;;;;;4.20;2.33;;;16.00;99.90;;;;;;4118859;28;20216;-71
2023/07/14 02:19:20;;;;;;;3.23;2.23;;;15.90;99.90;;;;;;4119519;28;20671;-71
2023/07/14 02:21:26;;;;;;;4.37;2.07;;;15.90;99.90;;;;;;4122489;28;20240;-72
2023/07/14 02:23:29;;;;;;;3.97;2.60;;;15.90;99.90;;;;;;4120884;28;20252;-71
2023/07/14 02:25:35;;;;;;;3.73;2.33;;;16.00;99.90;;;;;;4123270;28;20316;-71
2023/07/14 02:27:37;;;;;;;6.27;2.43;;;16.00;99.90;;;;;;4122073;28;20308;-71
2023/07/14 02:29:38;;;;;;;3.90;2.20;;;16.00;99.90;;;;;;4120721;28;20291;-71
2023/07/14 02:31:45;;;;;;;4.37;2.37;;;15.90;99.90;;;;;;4121950;28;20225;-71
2023/07/14 02:33:49;;;;;;;3.17;2.30;;;15.90;99.90;;;;;;4122425;28;20224;-71
2023/07/14 02:35:59;;;;;;;3.90;2.50;;;15.90;99.90;;;;;;4121709;28;20294;-72
2023/07/14 02:38:03;;;;;;;3.93;2.50;;;15.90;99.90;;;;;;4120866;28;20212;-72
2023/07/14 02:40:10;;;;;;;3.77;2.70;;;15.90;99.90;;;;;;4121481;28;20222;-71
2023/07/14 02:42:12;;;;;;;4.57;2.93;;;15.90;99.90;;;;;;4123557;28;20239;-72
2023/07/14 02:44:17;;;;;;;4.53;2.40;;;16.00;99.90;;;;;;4122562;28;20307;-72
2023/07/14 02:46:24;;;;;;;3.93;2.70;;;15.90;99.90;;;;;;4122552;28;20263;-71
2023/07/14 02:48:34;;;;;;;7.00;2.80;;;15.90;99.90;;;;;;4121294;28;20205;-72
2023/07/14 02:50:37;;;;;;;7.57;2.77;;;15.90;99.90;;;;;;4120953;28;20304;-72
2023/07/14 02:52:39;;;;;;;3.47;2.43;;;15.90;99.90;;;;;;4122857;28;20216;-72
2023/07/14 02:54:41;;;;;;;4.93;2.80;;;15.90;99.90;;;;;;4124530;28;20307;-72
2023/07/14 02:56:43;;;;;;;5.47;2.60;;;15.90;99.90;;;;;;4121477;28;20212;-72
2023/07/14 02:58:49;;;;;;;3.73;2.40;;;15.90;99.90;;;;;;4122237;28;20592;-72
2023/07/14 03:00:51;;;;;;;4.23;2.40;;;15.90;99.90;;;;;;4120258;28;20274;-72
2023/07/14 03:02:53;;;;;;;3.33;2.37;;;15.90;99.90;;;;;;4121678;28;20220;-72
2023/07/14 03:04:55;;;;;;;4.03;2.60;;;15.90;99.90;;;;;;4123097;28;20757;-72
2023/07/14 03:06:59;;;;;;;3.67;2.57;;;15.90;99.90;;;;;;4120337;28;20216;-72
2023/07/14 03:09:01;;;;;;;4.93;2.80;;;15.90;99.90;;;;;;4121612;28;20217;-72
2023/07/14 03:11:03;;;;;;;5.37;3.00;;;15.90;99.90;;;;;;4119678;28;20239;-72
2023/07/14 03:13:04;;;;;;;4.17;2.70;;;15.90;99.90;;;;;;4122523;28;20311;-72
2023/07/14 03:15:08;;;;;;;3.90;2.60;;;15.80;99.90;;;;;;4123995;28;20311;-71
2023/07/14 03:17:11;;;;;;;6.40;2.60;;;15.80;99.90;;;;;;4121977;28;20303;-72
2023/07/14 03:19:13;;;;;;;4.73;2.37;;;15.80;99.90;;;;;;4123577;28;20224;-72
2023/07/14 03:21:15;;;;;;;5.30;2.50;;;15.70;99.90;;;;;;4121370;28;20250;-72
2023/07/14 03:23:18;;;;;;;3.77;2.23;;;15.60;99.90;;;;;;4120394;28;20306;-72
2023/07/14 03:25:20;;;;;;;5.43;2.73;;;15.60;99.90;;;;;;4122062;28;20576;-72
2023/07/14 03:27:22;;;;;;;5.83;2.30;;;15.60;99.90;;;;;;4120268;28;20222;-72
2023/07/14 03:29:25;;;;;;;5.23;2.40;;;15.60;99.90;;;;;;4122388;28;20234;-72
2023/07/14 03:31:27;;;;;;;5.13;2.87;;;15.60;99.90;;;;;;4123308;28;20238;-71
2023/07/14 03:33:28;;;;;;;3.47;2.50;;;15.60;99.90;;;;;;4122496;28;20212;-71
2023/07/14 03:35:30;;;;;;;4.37;2.70;;;15.60;99.90;;;;;;4123621;28;20325;-71
2023/07/14 03:37:32;;;;;;;4.77;2.30;;;15.50;99.90;;;;;;4124119;28;20586;-70
2023/07/14 03:39:35;;;;;;;5.30;2.47;;;15.50;99.90;;;;;;4125220;28;20780;-73
2023/07/14 03:41:37;;;;;;;4.50;2.23;;;15.50;99.90;;;;;;4123768;28;20225;-70
2023/07/14 03:43:39;;;;;;;3.47;2.50;;;15.50;99.90;;;;;;4126132;28;20236;-72
2023/07/14 03:45:41;;;;;;;4.57;2.50;;;15.50;99.90;;;;;;4124616;28;20215;-71
2023/07/14 03:47:42;;;;;;;3.93;2.80;;;15.50;99.90;;;;;;4126380;28;20311;-71
2023/07/14 03:49:44;;;;;;;5.43;2.80;;;15.50;99.90;;;;;;4125210;28;21560;-70
2023/07/14 03:51:47;;;;;;;3.70;2.47;;;15.50;99.90;;;;;;4125564;28;20323;-70
2023/07/14 03:53:50;;;;;;;4.90;2.70;;;15.60;99.90;;;;;;4125438;28;20243;-69
2023/07/14 03:55:53;;;;;;;5.30;2.57;;;15.60;99.90;;;;;;4124213;28;20255;-70
2023/07/14 03:57:55;;;;;;;4.07;2.40;;;15.60;99.90;;;;;;4122273;28;20297;-70
2023/07/14 03:59:57;;;;;;;2.80;2.00;;;15.60;99.90;;;;;;4121503;28;20240;-70
2023/07/14 04:01:58;;;;;;;6.30;2.57;;;15.60;99.90;;;;;;4124208;28;20319;-70
2023/07/14 04:04:00;;;;;;;4.53;2.70;;;15.60;99.90;;;;;;4122130;28;20247;-70
2023/07/14 04:06:04;;;;;;;4.87;2.30;;;15.60;99.90;;;;;;4123156;28;20307;-70
2023/07/14 04:08:06;;;;;;;6.73;2.40;;;15.60;99.90;;;;;;4124882;28;20237;-69
2023/07/14 04:10:10;;;;;;;3.53;2.43;;;15.60;99.90;;;;;;4122580;28;20215;-71
2023/07/14 04:12:13;;;;;;;2.53;2.00;;;15.60;99.90;;;;;;4125020;28;20244;-71
2023/07/14 04:14:15;;;;;;;6.20;2.50;;;15.70;99.90;;;;;;4122375;28;20216;-69
2023/07/14 04:16:18;;;;;;;6.77;3.00;;;15.70;99.90;;;;;;4122517;28;20216;-71
2023/07/14 04:18:20;;;;;;;3.77;2.23;;;15.70;99.90;;;;;;4124246;28;20310;-71
2023/07/14 04:20:22;;;;;;;4.53;2.47;;;15.70;99.90;;;;;;4128524;28;20228;-69
2023/07/14 04:22:24;;;;;;;5.80;2.83;;;15.70;99.90;;;;;;4126850;28;20676;-71
2023/07/14 04:24:26;;;;;;;4.37;2.37;;;15.70;99.90;;;;;;4124750;28;20300;-71
2023/07/14 04:26:29;;;;;;;3.30;2.20;;;15.70;99.90;;;;;;4127779;28;20757;-68
2023/07/14 04:28:32;;;;;;;9.17;2.47;;;15.70;99.90;;;;;;4126647;28;20263;-69
2023/07/14 04:30:34;;;;;;;5.70;2.50;;;15.70;99.90;;;;;;4126238;28;20314;-68
2023/07/14 04:32:36;;;;;;;4.20;2.53;;;15.70;99.90;;;;;;4124850;28;20303;-69
2023/07/14 04:34:38;;;;;;;4.27;2.50;;;15.80;99.90;;;;;;4125094;28;20327;-69
2023/07/14 04:36:40;;;;;;;6.73;2.77;;;15.80;99.90;;;;;;4125353;28;20729;-69
2023/07/14 04:38:43;;;;;;;4.70;3.10;;;15.80;99.90;;;;;;4128326;28;20231;-70
2023/07/14 04:40:45;;;;;;;4.47;2.70;;;15.80;99.90;;;;;;4126389;28;20250;-70
2023/07/14 04:42:48;;;;;;;4.63;2.50;;;15.90;99.90;;;;;;4127218;28;20220;-70
2023/07/14 04:44:51;;;;;;;4.63;2.80;;;15.90;99.90;;;;;;4125559;28;20252;-69
2023/07/14 04:46:53;;;;;;;5.13;2.70;;;15.90;99.90;;;;;;4126500;28;20297;-70
2023/07/14 04:48:58;;;;;;;6.50;2.90;;;15.90;99.90;;;;;;4121140;28;20217;-71
2023/07/14 04:51:00;;;;;;;7.53;4.33;;;15.90;99.90;;;;;;4123632;28;20274;-70
2023/07/14 04:53:05;;;;;;;12.37;6.63;;;15.90;99.90;;;;;;4125348;28;20208;-69
2023/07/14 04:55:07;;;;;;;9.33;6.43;;;16.00;99.90;;;;;;4124804;28;20216;-69
2023/07/14 04:57:09;;;;;;;7.90;5.60;;;16.00;99.90;;;;;;4121928;28;20213;-70
2023/07/14 04:59:11;;;;;;;7.20;4.30;;;16.00;99.90;;;;;;4122615;28;20423;-71
2023/07/14 05:01:15;;;;;;;6.47;3.90;;;16.10;99.90;;;;;;4121515;28;20253;-72
2023/07/14 05:03:16;;;;;;;5.87;3.07;;;16.10;99.90;;;;;;4122619;28;20223;-70
2023/07/14 05:05:21;;;;;;;8.97;3.20;;;16.20;99.90;;;;;;4122993;28;20304;-71
2023/07/14 05:07:22;;;;;;;8.70;2.90;;;16.20;99.90;;;;;;4121539;28;20221;-71
2023/07/14 05:09:25;;;;;;;4.50;3.10;;;16.30;99.90;;;;;;4121479;28;20714;-70
2023/07/14 05:11:27;;;;;;;6.67;3.43;;;16.40;99.90;;;;;;4119681;28;20235;-71
2023/07/14 05:13:29;;;;;;;10.83;5.93;;;16.40;99.90;;;;;;4127453;28;20216;-70
2023/07/14 05:15:32;;;;;;;6.53;4.33;;;16.50;99.90;;;;;;4122077;28;20220;-71
2023/07/14 05:17:34;;;;;;;6.27;3.70;;;16.50;99.90;;;;;;4118787;28;20713;-71
2023/07/14 05:19:36;;;;;;;5.50;3.17;;;16.50;99.90;;;;;;4119636;28;20224;-69
2023/07/14 05:21:38;;;;;;;6.27;2.80;;;16.50;99.90;;;;;;4124395;28;20232;-70
2023/07/14 05:23:40;;;;;;;5.40;3.00;;;16.50;99.90;;;;;;4123534;28;20287;-70
2023/07/14 05:25:42;;;;;;;3.37;2.50;;;16.50;99.90;;;;;;4122707;28;20671;-70
2023/07/14 05:27:45;;;;;;;3.70;2.50;;;16.50;99.90;;;;;;4119129;28;20520;-71
2023/07/14 05:29:47;;;;;;;4.73;3.03;;;16.50;99.90;;;;;;4122990;28;20217;-71
2023/07/14 05:31:48;;;;;;;8.43;2.90;;;16.50;99.90;;;;;;4120755;28;20233;-70
2023/07/14 05:33:52;;;;;;;6.27;2.90;;;16.50;99.90;;;;;;4121300;28;20605;-70
2023/07/14 05:35:54;;;;;;;6.00;2.87;;;16.50;99.90;;;;;;4120070;28;20219;-70
2023/07/14 05:37:57;;;;;;;3.43;2.53;;;16.50;99.90;;;;;;4120438;28;20290;-71
2023/07/14 05:39:59;;;;;;;5.27;2.50;;;16.50;99.90;;;;;;4120871;28;20258;-71
2023/07/14 05:42:03;;;;;;;3.77;2.27;;;16.50;99.90;;;;;;4122383;28;20789;-71
2023/07/14 05:44:04;;;;;;;5.67;2.80;;;16.50;99.90;;;;;;4120898;28;20264;-71
2023/07/14 05:46:06;;;;;;;4.87;2.33;;;16.50;99.90;;;;;;4120446;28;20210;-70
2023/07/14 05:48:08;;;;;;;4.20;2.30;;;16.60;99.90;;;;;;4119686;28;20216;-70
2023/07/14 05:50:12;;;;;;;4.87;2.50;;;16.60;99.90;;;;;;4120483;28;20288;-70
2023/07/14 05:52:13;;;;;;;4.13;2.47;;;16.60;99.90;;;;;;4123006;28;20331;-71
2023/07/14 05:54:15;;;;;;;3.53;1.93;;;16.60;99.90;;;;;;4123106;28;20602;-70
2023/07/14 05:56:17;;;;;;;3.97;2.37;;;16.60;99.90;;;;;;4120183;28;20816;-72
2023/07/14 05:58:19;;;;;;;4.07;1.97;;;16.70;99.90;;;;;;4122739;28;20197;-72
2023/07/14 06:00:21;;;;;;;5.40;2.57;;;16.70;99.90;;;;;;4121954;28;20253;-71
2023/07/14 06:02:23;;;;;;;5.80;2.77;;;16.80;99.90;;;;;;4123269;28;20235;-71
2023/07/14 06:04:25;;;;;;;5.03;2.63;;;16.80;99.90;;;;;;4122724;28;20718;-71
2023/07/14 06:06:31;;;;;;;6.73;3.00;;;16.80;99.90;;;;;;4123452;28;20691;-70
2023/07/14 06:08:33;;;;;;;6.43;2.30;;;16.90;99.90;;;;;;4125302;28;20208;-71
2023/07/14 06:10:34;;;;;;;7.03;2.50;;;17.00;99.90;;;;;;4120631;28;20239;-71
2023/07/14 06:12:37;;;;;;;6.23;2.73;;;17.00;99.90;;;;;;4122381;28;20212;-71
2023/07/14 06:14:40;;;;;;;3.30;2.10;;;17.00;99.90;;;;;;4122182;28;20216;-71
2023/07/14 06:16:42;;;;;;;4.60;2.23;;;17.10;99.90;;;;;;4120434;28;20697;-71
2023/07/14 06:18:44;;;;;;;7.83;3.80;;;17.10;99.90;;;;;;4119822;28;20216;-70
2023/07/14 06:20:45;;;;;;;5.50;2.90;;;17.20;99.90;;;;;;4120862;28;20228;-70
2023/07/14 06:22:48;;;;;;;5.17;2.70;;;17.20;99.90;;;;;;4125579;28;20243;-71
2023/07/14 06:24:50;;;;;;;3.20;2.17;;;17.30;99.90;;;;;;4120923;28;20205;-71
2023/07/14 06:26:52;;;;;;;5.17;2.20;;;17.30;99.90;;;;;;4117838;28;20218;-71
2023/07/14 06:28:54;;;;;;;3.87;2.30;;;17.40;99.90;;;;;;4120174;28;20502;-71
2023/07/14 06:30:57;;;;;;;3.33;1.90;;;17.40;99.90;;;;;;4120293;28;20609;-70
2023/07/14 06:32:59;;;;;;;7.13;1.87;;;17.40;99.90;;;;;;4121046;28;20224;-71
2023/07/14 06:35:01;;;;;;;4.70;2.03;;;17.50;99.90;;;;;;4121613;28;20237;-71
2023/07/14 06:37:03;;;;;;;5.07;2.10;;;17.50;99.90;;;;;;4120905;28;20593;-70
2023/07/14 06:39:07;;;;;;;4.33;2.17;;;17.50;99.90;;;;;;4121602;28;20214;-71
2023/07/14 06:41:09;;;;;;;5.30;2.13;;;17.60;99.90;;;;;;4122615;28;20241;-71
2023/07/14 06:43:11;;;;;;;6.90;2.23;;;17.70;99.90;;;;;;4119976;28;20219;-71
2023/07/14 06:45:13;;;;;;;3.80;1.80;;;17.70;99.90;;;;;;4123185;28;20647;-71
2023/07/14 06:47:16;;;;;;;4.90;2.20;;;17.80;99.90;;;;;;4122672;28;20217;-71
2023/07/14 06:49:17;;;;;;;5.63;1.83;;;17.80;99.90;;;;;;4120709;28;20309;-72
2023/07/14 06:51:19;;;;;;;5.57;2.33;;;17.90;99.90;;;;;;4121108;28;20230;-70
2023/07/14 06:53:22;;;;;;;6.17;2.87;;;18.00;99.90;;;;;;4121587;28;20304;-70
2023/07/14 06:55:25;;;;;;;6.40;2.87;;;18.10;99.90;;;;;;4121128;28;20696;-70
2023/07/14 06:57:27;;;;;;;6.93;2.73;;;18.20;99.90;;;;;;4120130;28;20242;-71
2023/07/14 06:59:29;;;;;;;5.97;2.30;;;18.20;99.90;;;;;;4122493;28;20300;-71
2023/07/14 07:01:31;;;;;;;7.07;2.00;;;18.30;99.90;;;;;;4125565;28;20241;-70
2023/07/14 07:03:34;;;;;;;5.57;2.97;;;18.40;99.90;;;;;;4121562;28;20228;-70
2023/07/14 07:05:38;;;;;;;7.97;3.40;;;18.40;99.90;;;;;;4117791;28;20228;-71
2023/07/14 07:07:40;;;;;;;6.70;3.90;;;18.50;99.90;;;;;;4121349;28;20210;-71
2023/07/14 07:09:42;;;;;;;5.47;3.10;;;18.50;99.90;;;;;;4124305;28;20213;-71
2023/07/14 07:11:46;;;;;;;6.43;2.40;;;18.60;99.90;;;;;;4120035;28;20788;-71
2023/07/14 07:13:47;;;;;;;4.40;2.40;;;18.60;99.90;;;;;;4120883;28;20260;-71
2023/07/14 07:15:49;;;;;;;4.10;1.87;;;18.70;99.90;;;;;;4122834;28;20248;-71
2023/07/14 07:17:51;;;;;;;3.43;2.10;;;18.70;99.90;;;;;;4124112;28;20211;-70
2023/07/14 07:19:53;;;;;;;2.90;1.93;;;18.80;99.90;;;;;;4121294;28;20246;-70
2023/07/14 07:21:55;;;;;;;3.37;1.70;;;18.80;99.90;;;;;;4122381;28;20565;-70
2023/07/14 07:23:57;;;;;;;2.47;1.70;;;18.80;99.90;;;;;;4119855;28;20253;-70
2023/07/14 07:25:59;;;;;;;4.73;2.40;;;18.90;99.90;;;;;;4122559;28;20212;-70
2023/07/14 07:28:03;;;;;;;5.23;2.50;;;18.90;99.90;;;;;;4119350;28;20591;-70
2023/07/14 07:30:06;;;;;;;3.53;2.13;;;19.10;99.90;;;;;;4121385;28;20219;-70
2023/07/14 07:32:09;;;;;;;3.87;2.10;;;19.20;99.90;;;;;;4121531;28;20297;-70
2023/07/14 07:34:11;;;;;;;2.93;1.70;;;19.20;99.90;;;;;;4122287;28;20201;-71
2023/07/14 07:36:17;;;;;;;4.83;1.73;;;19.30;99.90;;;;;;4120508;28;20311;-71
2023/07/14 07:38:19;;;;;;;3.47;1.67;;;19.30;99.90;;;;;;4124853;28;20552;-71
2023/07/14 07:40:21;;;;;;;4.63;1.83;;;19.40;99.90;;;;;;4120506;28;20228;-70
2023/07/14 07:42:23;;;;;;;4.17;1.70;;;19.50;99.90;;;;;;4123190;28;20702;-70
2023/07/14 07:44:28;;;;;;;6.17;1.80;;;19.60;99.90;;;;;;4122312;28;20247;-70
2023/07/14 07:46:29;;;;;;;1.87;1.40;;;19.70;99.90;;;;;;4121474;28;20655;-71
2023/07/14 07:48:31;;;;;;;4.07;2.00;;;19.80;99.90;;;;;;4126818;28;20256;-71
2023/07/14 07:50:33;;;;;;;4.40;1.67;;;19.90;99.90;;;;;;4123312;28;20847;-71
2023/07/14 07:52:35;;;;;;;3.70;1.73;;;20.00;99.90;;;;;;4126108;28;20212;-70
2023/07/14 07:54:37;;;;;;;3.00;1.43;;;20.00;99.90;;;;;;4125538;28;20218;-70
2023/07/14 07:56:43;;;;;;;2.90;1.67;;;20.10;99.90;;;;;;4122147;28;20208;-70
2023/07/14 07:58:45;;;;;;;2.47;1.50;;;20.10;99.90;;;;;;4123534;28;20209;-71
2023/07/14 08:00:48;;;;;;;2.80;1.40;;;20.20;99.90;;;;;;4127745;28;20622;-72
2023/07/14 08:02:50;;;;;;;2.33;1.40;;;20.30;99.90;;;;;;4126633;28;20216;-71
2023/07/14 08:04:52;;;;;;;3.83;1.83;;;20.30;99.90;;;;;;4122224;28;20746;-71
2023/07/14 08:06:54;;;;;;;3.07;1.40;;;20.40;99.90;;;;;;4125005;28;20768;-71
2023/07/14 08:08:56;;;;;;;5.10;1.60;;;20.40;99.90;;;;;;4126538;28;20307;-70
2023/07/14 08:10:59;;;;;;;5.43;1.47;;;20.40;99.90;;;;;;4125967;28;20244;-70
2023/07/14 08:13:01;;;;;;;2.30;1.40;;;20.50;99.90;;;;;;4123424;28;20241;-70
2023/07/14 08:15:03;;;;;;;3.83;1.53;;;20.60;99.90;;;;;;4124927;28;20904;-70
2023/07/14 08:17:06;;;;;;;2.67;1.77;;;20.60;99.90;;;;;;4124967;28;20262;-70
2023/07/14 08:19:08;;;;;;;2.70;1.23;;;20.70;99.90;;;;;;4127752;28;20209;-71
2023/07/14 08:21:10;;;;;;;3.87;1.90;;;20.80;99.90;;;;;;4125108;28;20611;-71
2023/07/14 08:23:15;;;;;;;3.43;1.67;;;20.90;99.90;;;;;;4124483;28;20216;-71
2023/07/14 08:25:17;;;;;;;2.40;1.30;;;20.90;99.90;;;;;;4124294;28;20216;-71
2023/07/14 08:27:18;;;;;;;4.63;1.60;;;21.00;99.90;;;;;;4126172;28;20358;-71
2023/07/14 08:29:21;;;;;;;3.97;1.43;;;21.10;99.90;;;;;;4126651;28;20336;-71
2023/07/14 08:31:23;;;;;;;3.80;1.63;;;21.10;99.90;;;;;;4124066;28;20279;-71
2023/07/14 08:33:27;;;;;;;3.30;1.80;;;21.10;99.90;;;;;;4124192;28;20732;-71
2023/07/14 08:35:29;;;;;;;3.27;1.63;;;21.20;99.90;;;;;;4123701;28;20909;-71
2023/07/14 08:37:31;;;;;;;5.53;1.63;;;21.30;99.90;;;;;;4121731;28;20551;-71
2023/07/14 08:39:33;;;;;;;5.17;1.70;;;21.40;99.90;;;;;;4121479;28;20220;-71
2023/07/14 08:41:40;;;;;;;4.33;1.53;;;21.50;99.90;;;;;;4124029;28;20234;-71
2023/07/14 08:43:53;;;;;;;3.57;1.60;;;21.60;99.90;;;;;;4124326;28;20211;-71
2023/07/14 08:45:59;;;;;;;3.30;1.30;;;21.60;99.90;;;;;;4120804;28;20512;-71
2023/07/14 08:48:15;;;;;;;2.87;1.50;;;21.70;99.90;;;;;;4124127;28;20257;-71
2023/07/14 08:50:24;;;;;;;2.53;1.50;;;21.80;99.90;;;;;;4122380;28;20209;-71
2023/07/14 08:52:29;;;;;;;3.60;1.40;;;21.90;99.90;;;;;;4121983;28;20205;-70
2023/07/14 08:54:42;;;;;;;3.67;1.57;;;22.00;99.90;;;;;;4123694;28;20307;-70
2023/07/14 08:56:45;;;;;;;4.13;1.40;;;22.10;99.90;;;;;;4122883;28;20716;-70
2023/07/14 08:58:49;;;;;;;3.47;1.70;;;22.10;99.90;;;;;;4123655;28;20219;-70
2023/07/14 09:01:03;;;;;;;3.20;1.50;;;22.20;99.90;;;;;;4121158;28;20710;-70
2023/07/14 09:03:11;;;;;;;4.80;3.30;;;22.30;99.30;;;;;;4122239;28;20215;-69
2023/07/14 09:05:19;;;;;;;2.73;1.63;;;22.50;94.60;;;;;;4119608;28;20587;-70
2023/07/14 09:07:22;;;;;;;2.87;1.30;;;22.50;95.00;;;;;;4122250;28;20756;-70
2023/07/14 09:09:32;;;;;;;3.80;1.50;;;22.60;93.50;;;;;;4123312;28;20407;-70
2023/07/14 09:11:43;;;;;;;2.40;1.20;;;22.70;92.70;;;;;;4121604;28;20229;-70
2023/07/14 09:13:51;;;;;;;5.57;1.70;;;22.70;91.90;;;;;;4123143;28;20303;-70
2023/07/14 09:15:52;;;;;;;4.17;1.33;;;22.80;90.60;;;;;;4126772;28;20218;-71
2023/07/14 09:18:15;;;;;;;2.73;1.23;;;22.90;91.10;;;;;;4123333;28;20304;-70
2023/07/14 09:20:31;;;;;;;3.57;1.60;;;23.00;90.60;;;;;;4125560;28;20209;-70
2023/07/14 09:22:39;;;;;;;3.40;1.50;;;23.20;88.80;;;;;;4122980;28;20613;-70
2023/07/14 09:24:46;;;;;;;2.77;1.50;;;23.30;87.60;;;;;;4126957;28;20212;-70
2023/07/14 09:26:54;;;;;;;3.27;1.60;;;23.50;85.50;;;;;;4125430;28;20217;-70
2023/07/14 09:28:56;;;;;;;2.27;1.30;;;23.60;84.00;;;;;;4124962;28;20208;-70
2023/07/14 09:31:03;;;;;;;2.47;1.50;;;23.70;80.40;;;;;;4123265;28;20691;-70
2023/07/14 09:33:11;;;;;;;3.70;1.83;;;23.90;80.30;;;;;;4123892;28;20267;-70
2023/07/14 09:35:17;;;;;;;5.37;1.67;;;24.00;79.70;;;;;;4124628;28;20211;-70
2023/07/14 09:37:20;;;;;;;4.23;1.40;;;24.10;79.80;;;;;;4122496;28;20216;-70
2023/07/14 09:39:33;;;;;;;3.90;1.77;;;24.20;78.90;;;;;;4122863;28;20200;-70
2023/07/14 09:41:37;;;;;;;3.90;1.63;;;24.30;74.10;;;;;;4121084;28;20251;-70
2023/07/14 09:43:39;;;;;;;3.77;1.80;;;24.30;71.50;;;;;;4119510;28;20208;-72
2023/07/14 09:45:41;;;;;;;8.20;1.70;;;24.30;69.20;;;;;;4121622;28;20239;-74
2023/07/14 09:47:45;;;;;;;3.87;1.87;;;24.40;68.00;;;;;;4121806;28;20215;-74
2023/07/14 09:49:51;;;;;;;2.13;1.33;;;24.50;68.40;;;;;;4124429;28;20213;-71
2023/07/14 09:52:20;;;;;;;3.93;1.40;;;24.50;67.30;;;;;;4123918;28;20302;-73
2023/07/14 09:54:24;;;;;;;2.50;1.43;;;24.50;66.40;;;;;;4115643;28;20331;-70
2023/07/14 09:56:30;;;;;;;3.13;1.40;;;24.60;65.00;;;;;;4124402;28;20216;-70
2023/07/14 09:58:33;;;;;;;2.53;1.40;;;24.80;65.20;;;;;;4123958;28;20221;-71
2023/07/14 10:00:40;;;;;;;2.80;1.40;;;25.00;64.70;;;;;;4124478;28;20220;-71
2023/07/14 10:02:44;;;;;;;3.43;1.50;;;25.10;63.80;;;;;;4122410;28;20300;-71
2023/07/14 10:04:49;;;;;;;2.50;1.63;;;25.30;59.60;;;;;;4122101;28;20220;-73
2023/07/14 10:06:51;;;;;;;2.50;1.60;;;25.60;56.90;;;;;;4122703;28;20584;-71
2023/07/14 10:08:56;;;;;;;3.43;1.50;;;25.70;55.50;;;;;;4124608;28;20304;-72
2023/07/14 10:11:12;;;;;;;3.40;1.47;;;25.80;53.20;;;;;;4121895;28;20228;-72
2023/07/14 10:13:19;;;;;;;3.57;1.67;;;26.00;53.10;;;;;;4121149;28;20299;-71
2023/07/14 10:15:31;;;;;;;6.23;1.73;;;26.00;51.90;;;;;;4120422;28;20682;-72
2023/07/14 10:17:34;;;;;;;4.70;1.47;;;26.10;51.60;;;;;;4122065;28;20212;-72
2023/07/14 10:19:39;;;;;;;2.83;1.43;;;26.10;51.90;;;;;;4119527;28;20567;-72
2023/07/14 10:21:51;;;;;;;2.90;1.47;;;26.20;50.80;;;;;;4124975;28;20238;-71
2023/07/14 10:24:01;;;;;;;2.37;1.30;;;26.30;50.10;;;;;;4119967;28;20213;-71
2023/07/14 10:26:07;;;;;;;2.80;1.60;;;26.40;49.10;;;;;;4120070;28;20244;-72
2023/07/14 10:28:13;;;;;;;3.53;1.40;;;26.60;48.60;;;;;;4122931;28;20674;-72
2023/07/14 10:30:25;;;;;;;2.20;1.47;;;26.70;48.30;;;;;;4120921;28;20296;-72
2023/07/14 10:32:31;;;;;;;2.43;1.50;;;26.90;47.50;;;;;;4122047;28;20768;-72
2023/07/14 10:34:52;;;;;;;3.40;1.50;;;27.10;47.00;;;;;;4121423;28;20736;-72
2023/07/14 10:36:58;;;;;;;2.77;1.40;;;27.20;45.50;;;;;;4123461;28;20213;-72
2023/07/14 10:39:06;;;;;;;3.93;1.40;;;27.20;44.40;;;;;;4122926;28;20216;-71
2023/07/14 10:41:12;;;;;;;2.03;1.30;;;27.30;44.30;;;;;;4121259;28;20228;-73
2023/07/14 10:43:21;;;;;;;3.33;1.23;;;27.40;44.00;;;;;;4120368;28;20309;-73
2023/07/14 10:45:23;;;;;;;3.10;1.40;;;27.60;42.70;;;;;;4120453;28;20659;-73
2023/07/14 10:47:30;;;;;;;3.20;1.40;;;27.60;41.50;;;;;;4118126;28;20234;-72